Terminal Aerodrome Forecast
Issued by NWS

Home | Current Version | Previous Version | Text Only | Print | Product List | Glossary On
Versions: 1 2 3 4 5 6 7 8 9 10 11 12 13 14 15 16 17 18 19
560
FTUS42 KILM 250539 CCA
TAFCRE
TAF COR
KCRE 250539Z 2506/2606 06005KT 2SM BR VCSH BKN025
      TEMPO 2506/2510 1/4SM -SHRA FG BKN002
     FM251500 27010KT P6SM BKN010 PROB30 2515/2520 3SM SHRA BKN006
     FM252300 27010KT P6SM BKN020
     FM260300 29008KT P6SM SCT150=

USA.gov is the U.S. government's official web portal to all federal, state and local government web resources and services.